sensor_id;sensor_type;location;lat;lon;timestamp;P1;durP1;ratioP1;P2;durP2;ratioP2
16612;SDS011;8419;52.358;9.752;2024-03-22T00:02:41;14.87;;;9.50;;
16612;SDS011;8419;52.358;9.752;2024-03-22T00:05:27;11.12;;;8.90;;
16612;SDS011;8419;52.358;9.752;2024-03-22T00:08:13;15.10;;;9.55;;
16612;SDS011;8419;52.358;9.752;2024-03-22T00:10:58;14.85;;;10.30;;
16612;SDS011;8419;52.358;9.752;2024-03-22T00:13:43;16.77;;;10.63;;
16612;SDS011;8419;52.358;9.752;2024-03-22T00:16:29;15.82;;;10.90;;
16612;SDS011;8419;52.358;9.752;2024-03-22T00:19:15;14.18;;;10.35;;
16612;SDS011;8419;52.358;9.752;2024-03-22T00:22:01;17.60;;;11.27;;
16612;SDS011;8419;52.358;9.752;2024-03-22T00:24:46;15.70;;;10.57;;
16612;SDS011;8419;52.358;9.752;2024-03-22T00:27:32;15.80;;;10.48;;
16612;SDS011;8419;52.358;9.752;2024-03-22T00:30:17;19.17;;;10.55;;
16612;SDS011;8419;52.358;9.752;2024-03-22T00:33:03;18.45;;;11.45;;
16612;SDS011;8419;52.358;9.752;2024-03-22T00:35:49;17.12;;;11.18;;
16612;SDS011;8419;52.358;9.752;2024-03-22T00:38:35;18.87;;;10.80;;
16612;SDS011;8419;52.358;9.752;2024-03-22T00:41:20;18.30;;;11.43;;
16612;SDS011;8419;52.358;9.752;2024-03-22T00:44:05;17.80;;;11.82;;
16612;SDS011;8419;52.358;9.752;2024-03-22T00:46:51;18.17;;;11.65;;
16612;SDS011;8419;52.358;9.752;2024-03-22T00:49:37;17.48;;;12.10;;
16612;SDS011;8419;52.358;9.752;2024-03-22T00:52:22;18.12;;;11.93;;
16612;SDS011;8419;52.358;9.752;2024-03-22T00:55:09;18.85;;;13.27;;
16612;SDS011;8419;52.358;9.752;2024-03-22T00:57:54;20.15;;;12.10;;
16612;SDS011;8419;52.358;9.752;2024-03-22T01:00:42;20.50;;;12.60;;
16612;SDS011;8419;52.358;9.752;2024-03-22T01:03:28;20.30;;;12.85;;
16612;SDS011;8419;52.358;9.752;2024-03-22T01:06:13;17.77;;;12.65;;
16612;SDS011;8419;52.358;9.752;2024-03-22T01:08:59;20.00;;;13.38;;
16612;SDS011;8419;52.358;9.752;2024-03-22T01:11:45;20.00;;;13.27;;
16612;SDS011;8419;52.358;9.752;2024-03-22T01:14:31;21.20;;;13.88;;
16612;SDS011;8419;52.358;9.752;2024-03-22T01:17:16;22.15;;;14.15;;
16612;SDS011;8419;52.358;9.752;2024-03-22T01:20:02;23.77;;;14.82;;
16612;SDS011;8419;52.358;9.752;2024-03-22T01:22:49;22.85;;;15.10;;
16612;SDS011;8419;52.358;9.752;2024-03-22T01:25:35;22.27;;;14.60;;
16612;SDS011;8419;52.358;9.752;2024-03-22T01:28:20;24.33;;;14.75;;
16612;SDS011;8419;52.358;9.752;2024-03-22T01:31:06;25.30;;;16.30;;
16612;SDS011;8419;52.358;9.752;2024-03-22T01:33:51;27.33;;;16.90;;
16612;SDS011;8419;52.358;9.752;2024-03-22T01:36:37;25.00;;;15.45;;
16612;SDS011;8419;52.358;9.752;2024-03-22T01:39:23;23.33;;;14.77;;
16612;SDS011;8419;52.358;9.752;2024-03-22T01:42:08;25.23;;;17.42;;
16612;SDS011;8419;52.358;9.752;2024-03-22T01:44:53;27.10;;;17.25;;
16612;SDS011;8419;52.358;9.752;2024-03-22T01:47:39;27.40;;;16.65;;
16612;SDS011;8419;52.358;9.752;2024-03-22T01:50:25;28.75;;;16.75;;
16612;SDS011;8419;52.358;9.752;2024-03-22T01:53:12;23.75;;;15.27;;
16612;SDS011;8419;52.358;9.752;2024-03-22T01:55:57;27.98;;;17.05;;
16612;SDS011;8419;52.358;9.752;2024-03-22T01:58:43;26.40;;;15.90;;
16612;SDS011;8419;52.358;9.752;2024-03-22T02:01:30;30.95;;;17.77;;
16612;SDS011;8419;52.358;9.752;2024-03-22T02:04:16;21.20;;;14.87;;
16612;SDS011;8419;52.358;9.752;2024-03-22T02:07:01;29.12;;;17.10;;
16612;SDS011;8419;52.358;9.752;2024-03-22T02:09:48;25.15;;;16.90;;
16612;SDS011;8419;52.358;9.752;2024-03-22T02:12:33;31.25;;;16.70;;
16612;SDS011;8419;52.358;9.752;2024-03-22T02:15:19;26.55;;;16.05;;
16612;SDS011;8419;52.358;9.752;2024-03-22T02:18:05;29.50;;;16.85;;
16612;SDS011;8419;52.358;9.752;2024-03-22T02:20:51;26.30;;;17.33;;
16612;SDS011;8419;52.358;9.752;2024-03-22T02:23:37;23.50;;;15.75;;
16612;SDS011;8419;52.358;9.752;2024-03-22T02:26:23;26.55;;;16.23;;
16612;SDS011;8419;52.358;9.752;2024-03-22T02:29:09;26.05;;;16.33;;
16612;SDS011;8419;52.358;9.752;2024-03-22T02:31:55;27.58;;;16.30;;
16612;SDS011;8419;52.358;9.752;2024-03-22T02:34:42;31.35;;;18.37;;
16612;SDS011;8419;52.358;9.752;2024-03-22T02:37:28;28.65;;;16.45;;
16612;SDS011;8419;52.358;9.752;2024-03-22T02:40:14;27.25;;;16.60;;
16612;SDS011;8419;52.358;9.752;2024-03-22T02:42:59;31.58;;;17.30;;
16612;SDS011;8419;52.358;9.752;2024-03-22T02:45:44;26.52;;;16.48;;
16612;SDS011;8419;52.358;9.752;2024-03-22T02:48:31;27.48;;;16.83;;
16612;SDS011;8419;52.358;9.752;2024-03-22T02:51:17;33.05;;;17.73;;
16612;SDS011;8419;52.358;9.752;2024-03-22T02:54:04;28.33;;;17.08;;
16612;SDS011;8419;52.358;9.752;2024-03-22T02:56:49;28.75;;;18.67;;
16612;SDS011;8419;52.358;9.752;2024-03-22T02:59:35;31.20;;;17.33;;
16612;SDS011;8419;52.358;9.752;2024-03-22T03:02:20;29.00;;;17.77;;
16612;SDS011;8419;52.358;9.752;2024-03-22T03:05:06;30.98;;;18.37;;
16612;SDS011;8419;52.358;9.752;2024-03-22T03:07:53;30.88;;;17.85;;
16612;SDS011;8419;52.358;9.752;2024-03-22T03:10:39;32.80;;;18.40;;
16612;SDS011;8419;52.358;9.752;2024-03-22T03:13:24;31.00;;;18.60;;
16612;SDS011;8419;52.358;9.752;2024-03-22T03:16:10;29.80;;;17.52;;
16612;SDS011;8419;52.358;9.752;2024-03-22T03:18:55;31.30;;;18.20;;
16612;SDS011;8419;52.358;9.752;2024-03-22T03:21:41;27.77;;;17.48;;
16612;SDS011;8419;52.358;9.752;2024-03-22T03:24:26;32.30;;;18.50;;
16612;SDS011;8419;52.358;9.752;2024-03-22T03:27:12;30.27;;;18.80;;
16612;SDS011;8419;52.358;9.752;2024-03-22T03:29:57;34.67;;;18.15;;
16612;SDS011;8419;52.358;9.752;2024-03-22T03:32:44;30.37;;;17.35;;
16612;SDS011;8419;52.358;9.752;2024-03-22T03:35:30;32.70;;;18.75;;
16612;SDS011;8419;52.358;9.752;2024-03-22T03:38:15;35.67;;;19.45;;
16612;SDS011;8419;52.358;9.752;2024-03-22T03:41:00;37.35;;;18.52;;
16612;SDS011;8419;52.358;9.752;2024-03-22T03:43:46;37.00;;;19.27;;
16612;SDS011;8419;52.358;9.752;2024-03-22T03:46:32;31.08;;;17.73;;
16612;SDS011;8419;52.358;9.752;2024-03-22T03:49:18;32.03;;;18.62;;
16612;SDS011;8419;52.358;9.752;2024-03-22T03:52:03;30.45;;;18.52;;
16612;SDS011;8419;52.358;9.752;2024-03-22T03:54:49;29.23;;;18.15;;
16612;SDS011;8419;52.358;9.752;2024-03-22T03:57:34;30.50;;;19.00;;
16612;SDS011;8419;52.358;9.752;2024-03-22T04:00:20;38.70;;;20.30;;
16612;SDS011;8419;52.358;9.752;2024-03-22T04:03:08;28.85;;;16.90;;
16612;SDS011;8419;52.358;9.752;2024-03-22T04:05:57;33.92;;;19.35;;
16612;SDS011;8419;52.358;9.752;2024-03-22T04:08:43;31.10;;;18.05;;
16612;SDS011;8419;52.358;9.752;2024-03-22T04:11:29;32.92;;;18.23;;
16612;SDS011;8419;52.358;9.752;2024-03-22T04:14:15;30.45;;;18.42;;
16612;SDS011;8419;52.358;9.752;2024-03-22T04:17:00;29.50;;;17.83;;
16612;SDS011;8419;52.358;9.752;2024-03-22T04:19:46;32.50;;;19.05;;
16612;SDS011;8419;52.358;9.752;2024-03-22T04:22:33;34.22;;;19.40;;
16612;SDS011;8419;52.358;9.752;2024-03-22T04:25:19;35.70;;;18.58;;
16612;SDS011;8419;52.358;9.752;2024-03-22T04:28:05;34.40;;;18.12;;
16612;SDS011;8419;52.358;9.752;2024-03-22T04:30:58;29.60;;;17.67;;
16612;SDS011;8419;52.358;9.752;2024-03-22T04:33:45;33.05;;;18.65;;
16612;SDS011;8419;52.358;9.752;2024-03-22T04:36:30;34.58;;;19.20;;
16612;SDS011;8419;52.358;9.752;2024-03-22T04:39:16;29.65;;;17.45;;
16612;SDS011;8419;52.358;9.752;2024-03-22T04:42:01;37.38;;;18.65;;
16612;SDS011;8419;52.358;9.752;2024-03-22T04:44:47;38.88;;;19.58;;
16612;SDS011;8419;52.358;9.752;2024-03-22T04:47:33;35.45;;;20.62;;
16612;SDS011;8419;52.358;9.752;2024-03-22T04:50:18;32.53;;;19.55;;
16612;SDS011;8419;52.358;9.752;2024-03-22T04:53:04;33.25;;;18.77;;
16612;SDS011;8419;52.358;9.752;2024-03-22T04:55:49;35.97;;;19.60;;
16612;SDS011;8419;52.358;9.752;2024-03-22T04:58:35;36.72;;;19.48;;
16612;SDS011;8419;52.358;9.752;2024-03-22T05:01:20;34.60;;;18.20;;
16612;SDS011;8419;52.358;9.752;2024-03-22T05:04:07;33.60;;;19.12;;
16612;SDS011;8419;52.358;9.752;2024-03-22T05:06:53;35.42;;;18.60;;
16612;SDS011;8419;52.358;9.752;2024-03-22T05:09:39;31.48;;;17.27;;
16612;SDS011;8419;52.358;9.752;2024-03-22T05:12:24;33.75;;;18.08;;
16612;SDS011;8419;52.358;9.752;2024-03-22T05:15:09;34.05;;;17.85;;
16612;SDS011;8419;52.358;9.752;2024-03-22T05:17:55;31.30;;;18.15;;
16612;SDS011;8419;52.358;9.752;2024-03-22T05:20:42;34.58;;;18.37;;
16612;SDS011;8419;52.358;9.752;2024-03-22T05:23:27;35.78;;;19.20;;
16612;SDS011;8419;52.358;9.752;2024-03-22T05:26:12;31.87;;;17.33;;
16612;SDS011;8419;52.358;9.752;2024-03-22T05:28:59;33.67;;;17.00;;
16612;SDS011;8419;52.358;9.752;2024-03-22T05:31:48;31.27;;;16.70;;
16612;SDS011;8419;52.358;9.752;2024-03-22T05:34:35;29.65;;;17.37;;
16612;SDS011;8419;52.358;9.752;2024-03-22T05:37:21;30.60;;;17.58;;
16612;SDS011;8419;52.358;9.752;2024-03-22T05:40:08;30.80;;;16.23;;
16612;SDS011;8419;52.358;9.752;2024-03-22T05:42:55;31.75;;;17.95;;
16612;SDS011;8419;52.358;9.752;2024-03-22T05:45:40;35.30;;;18.10;;
16612;SDS011;8419;52.358;9.752;2024-03-22T05:48:26;33.40;;;18.33;;
16612;SDS011;8419;52.358;9.752;2024-03-22T05:51:12;31.27;;;17.12;;
16612;SDS011;8419;52.358;9.752;2024-03-22T05:53:58;31.23;;;16.80;;
16612;SDS011;8419;52.358;9.752;2024-03-22T05:56:43;32.92;;;18.02;;
16612;SDS011;8419;52.358;9.752;2024-03-22T05:59:29;33.95;;;17.62;;
16612;SDS011;8419;52.358;9.752;2024-03-22T06:02:15;29.65;;;17.27;;
16612;SDS011;8419;52.358;9.752;2024-03-22T06:05:00;28.48;;;16.23;;
16612;SDS011;8419;52.358;9.752;2024-03-22T06:07:46;30.17;;;17.12;;
16612;SDS011;8419;52.358;9.752;2024-03-22T06:10:31;28.73;;;16.80;;
16612;SDS011;8419;52.358;9.752;2024-03-22T06:13:17;33.25;;;17.65;;
16612;SDS011;8419;52.358;9.752;2024-03-22T06:16:03;30.65;;;16.92;;
16612;SDS011;8419;52.358;9.752;2024-03-22T06:18:50;30.92;;;16.00;;
16612;SDS011;8419;52.358;9.752;2024-03-22T06:21:35;28.77;;;16.05;;
16612;SDS011;8419;52.358;9.752;2024-03-22T06:24:21;30.98;;;16.90;;
16612;SDS011;8419;52.358;9.752;2024-03-22T06:27:07;29.30;;;16.70;;
16612;SDS011;8419;52.358;9.752;2024-03-22T06:29:52;29.08;;;16.17;;
16612;SDS011;8419;52.358;9.752;2024-03-22T06:32:37;32.78;;;16.52;;
16612;SDS011;8419;52.358;9.752;2024-03-22T06:35:23;29.27;;;15.80;;
16612;SDS011;8419;52.358;9.752;2024-03-22T06:38:08;27.83;;;15.65;;
16612;SDS011;8419;52.358;9.752;2024-03-22T06:40:54;26.83;;;15.15;;
16612;SDS011;8419;52.358;9.752;2024-03-22T06:43:39;30.58;;;16.90;;
16612;SDS011;8419;52.358;9.752;2024-03-22T06:46:25;32.15;;;15.88;;
16612;SDS011;8419;52.358;9.752;2024-03-22T06:49:11;30.37;;;15.55;;
16612;SDS011;8419;52.358;9.752;2024-03-22T06:51:56;24.60;;;15.43;;
16612;SDS011;8419;52.358;9.752;2024-03-22T06:54:42;26.27;;;15.50;;
16612;SDS011;8419;52.358;9.752;2024-03-22T06:57:27;26.20;;;15.50;;
16612;SDS011;8419;52.358;9.752;2024-03-22T07:00:14;26.27;;;15.77;;
16612;SDS011;8419;52.358;9.752;2024-03-22T07:03:00;24.08;;;14.57;;
16612;SDS011;8419;52.358;9.752;2024-03-22T07:05:47;29.65;;;15.43;;
16612;SDS011;8419;52.358;9.752;2024-03-22T07:08:32;26.02;;;14.48;;
16612;SDS011;8419;52.358;9.752;2024-03-22T07:11:18;25.05;;;14.87;;
16612;SDS011;8419;52.358;9.752;2024-03-22T07:14:03;26.75;;;14.20;;
16612;SDS011;8419;52.358;9.752;2024-03-22T07:16:49;29.92;;;14.40;;
16612;SDS011;8419;52.358;9.752;2024-03-22T07:19:35;24.85;;;13.98;;
16612;SDS011;8419;52.358;9.752;2024-03-22T07:22:21;24.80;;;14.23;;
16612;SDS011;8419;52.358;9.752;2024-03-22T07:25:07;20.67;;;12.80;;
16612;SDS011;8419;52.358;9.752;2024-03-22T07:27:57;27.58;;;14.40;;
16612;SDS011;8419;52.358;9.752;2024-03-22T07:30:43;21.00;;;13.23;;
16612;SDS011;8419;52.358;9.752;2024-03-22T07:33:30;25.52;;;13.52;;
16612;SDS011;8419;52.358;9.752;2024-03-22T07:36:16;25.35;;;14.05;;
16612;SDS011;8419;52.358;9.752;2024-03-22T07:39:01;26.77;;;14.73;;
16612;SDS011;8419;52.358;9.752;2024-03-22T07:41:50;24.60;;;13.82;;
16612;SDS011;8419;52.358;9.752;2024-03-22T07:44:36;22.42;;;13.60;;
16612;SDS011;8419;52.358;9.752;2024-03-22T07:47:21;20.50;;;12.60;;
16612;SDS011;8419;52.358;9.752;2024-03-22T07:50:07;22.15;;;12.68;;
16612;SDS011;8419;52.358;9.752;2024-03-22T07:52:54;18.73;;;12.15;;
16612;SDS011;8419;52.358;9.752;2024-03-22T07:55:39;19.85;;;10.38;;
16612;SDS011;8419;52.358;9.752;2024-03-22T07:58:24;21.75;;;10.30;;
16612;SDS011;8419;52.358;9.752;2024-03-22T08:01:10;21.17;;;12.20;;
16612;SDS011;8419;52.358;9.752;2024-03-22T08:03:55;20.67;;;13.07;;
16612;SDS011;8419;52.358;9.752;2024-03-22T08:06:41;22.87;;;11.93;;
16612;SDS011;8419;52.358;9.752;2024-03-22T08:09:26;18.05;;;10.80;;
16612;SDS011;8419;52.358;9.752;2024-03-22T08:12:11;13.70;;;7.18;;
16612;SDS011;8419;52.358;9.752;2024-03-22T08:14:57;22.98;;;12.48;;
16612;SDS011;8419;52.358;9.752;2024-03-22T08:17:42;17.98;;;11.38;;
16612;SDS011;8419;52.358;9.752;2024-03-22T08:20:28;23.50;;;12.25;;
16612;SDS011;8419;52.358;9.752;2024-03-22T08:23:14;11.57;;;6.62;;
16612;SDS011;8419;52.358;9.752;2024-03-22T08:26:01;18.60;;;11.60;;
16612;SDS011;8419;52.358;9.752;2024-03-22T08:28:48;18.83;;;11.43;;
16612;SDS011;8419;52.358;9.752;2024-03-22T08:31:33;15.50;;;9.90;;
16612;SDS011;8419;52.358;9.752;2024-03-22T08:34:19;20.50;;;11.75;;
16612;SDS011;8419;52.358;9.752;2024-03-22T08:37:05;17.00;;;9.73;;
16612;SDS011;8419;52.358;9.752;2024-03-22T08:39:51;18.08;;;11.23;;
16612;SDS011;8419;52.358;9.752;2024-03-22T08:42:36;20.05;;;11.45;;
16612;SDS011;8419;52.358;9.752;2024-03-22T08:45:22;16.40;;;9.50;;
16612;SDS011;8419;52.358;9.752;2024-03-22T08:48:08;16.25;;;10.32;;
16612;SDS011;8419;52.358;9.752;2024-03-22T08:50:53;18.05;;;10.35;;
16612;SDS011;8419;52.358;9.752;2024-03-22T08:53:39;17.45;;;10.65;;
16612;SDS011;8419;52.358;9.752;2024-03-22T08:56:24;16.62;;;11.18;;
16612;SDS011;8419;52.358;9.752;2024-03-22T08:59:10;15.05;;;8.63;;
16612;SDS011;8419;52.358;9.752;2024-03-22T09:01:56;20.10;;;11.75;;
16612;SDS011;8419;52.358;9.752;2024-03-22T09:04:42;22.17;;;11.25;;
16612;SDS011;8419;52.358;9.752;2024-03-22T09:07:27;18.05;;;11.20;;
16612;SDS011;8419;52.358;9.752;2024-03-22T09:10:13;18.25;;;11.52;;
16612;SDS011;8419;52.358;9.752;2024-03-22T09:12:59;20.40;;;10.98;;
16612;SDS011;8419;52.358;9.752;2024-03-22T09:15:44;17.70;;;11.57;;
16612;SDS011;8419;52.358;9.752;2024-03-22T09:18:30;15.07;;;9.88;;
16612;SDS011;8419;52.358;9.752;2024-03-22T09:21:17;18.02;;;9.80;;
16612;SDS011;8419;52.358;9.752;2024-03-22T09:24:02;18.75;;;10.30;;
16612;SDS011;8419;52.358;9.752;2024-03-22T09:26:48;17.50;;;10.43;;
16612;SDS011;8419;52.358;9.752;2024-03-22T09:29:33;14.65;;;8.93;;
16612;SDS011;8419;52.358;9.752;2024-03-22T09:32:19;15.60;;;9.30;;
16612;SDS011;8419;52.358;9.752;2024-03-22T09:35:05;13.05;;;8.85;;
16612;SDS011;8419;52.358;9.752;2024-03-22T09:37:51;13.85;;;9.23;;
16612;SDS011;8419;52.358;9.752;2024-03-22T09:40:38;13.27;;;8.30;;
16612;SDS011;8419;52.358;9.752;2024-03-22T09:43:23;10.68;;;5.90;;
16612;SDS011;8419;52.358;9.752;2024-03-22T09:46:13;14.15;;;9.30;;
16612;SDS011;8419;52.358;9.752;2024-03-22T09:48:59;14.40;;;8.75;;
16612;SDS011;8419;52.358;9.752;2024-03-22T09:51:46;14.63;;;9.63;;
16612;SDS011;8419;52.358;9.752;2024-03-22T09:54:33;13.75;;;8.77;;
16612;SDS011;8419;52.358;9.752;2024-03-22T09:57:18;15.95;;;9.38;;
16612;SDS011;8419;52.358;9.752;2024-03-22T10:00:07;15.75;;;9.18;;
16612;SDS011;8419;52.358;9.752;2024-03-22T10:02:54;11.90;;;8.18;;
16612;SDS011;8419;52.358;9.752;2024-03-22T10:05:40;12.93;;;8.43;;
16612;SDS011;8419;52.358;9.752;2024-03-22T10:08:25;16.35;;;9.00;;
16612;SDS011;8419;52.358;9.752;2024-03-22T10:11:11;13.98;;;8.52;;
16612;SDS011;8419;52.358;9.752;2024-03-22T10:13:56;13.77;;;8.93;;
16612;SDS011;8419;52.358;9.752;2024-03-22T10:16:44;13.25;;;8.75;;
16612;SDS011;8419;52.358;9.752;2024-03-22T10:19:31;12.65;;;8.07;;
16612;SDS011;8419;52.358;9.752;2024-03-22T10:22:16;14.27;;;8.20;;
16612;SDS011;8419;52.358;9.752;2024-03-22T10:25:01;13.98;;;7.72;;
16612;SDS011;8419;52.358;9.752;2024-03-22T10:27:50;15.25;;;9.35;;
16612;SDS011;8419;52.358;9.752;2024-03-22T10:30:38;14.10;;;8.40;;
16612;SDS011;8419;52.358;9.752;2024-03-22T10:33:26;11.52;;;6.68;;
16612;SDS011;8419;52.358;9.752;2024-03-22T10:36:13;9.90;;;7.18;;
16612;SDS011;8419;52.358;9.752;2024-03-22T10:39:02;4.60;;;3.53;;
16612;SDS011;8419;52.358;9.752;2024-03-22T10:41:49;14.23;;;8.43;;
16612;SDS011;8419;52.358;9.752;2024-03-22T10:44:34;13.85;;;8.23;;
16612;SDS011;8419;52.358;9.752;2024-03-22T10:47:20;15.57;;;10.05;;
16612;SDS011;8419;52.358;9.752;2024-03-22T10:50:09;12.77;;;8.35;;
16612;SDS011;8419;52.358;9.752;2024-03-22T10:52:57;12.20;;;8.68;;
16612;SDS011;8419;52.358;9.752;2024-03-22T10:55:47;10.38;;;6.35;;
16612;SDS011;8419;52.358;9.752;2024-03-22T10:58:34;11.90;;;8.18;;
16612;SDS011;8419;52.358;9.752;2024-03-22T11:01:24;12.35;;;8.43;;
16612;SDS011;8419;52.358;9.752;2024-03-22T11:04:10;9.65;;;6.28;;
16612;SDS011;8419;52.358;9.752;2024-03-22T11:06:56;13.30;;;8.15;;
16612;SDS011;8419;52.358;9.752;2024-03-22T11:09:43;16.90;;;9.93;;
16612;SDS011;8419;52.358;9.752;2024-03-22T11:12:40;10.52;;;7.30;;
16612;SDS011;8419;52.358;9.752;2024-03-22T11:15:26;16.05;;;8.23;;
16612;SDS011;8419;52.358;9.752;2024-03-22T11:18:13;14.48;;;9.38;;
16612;SDS011;8419;52.358;9.752;2024-03-22T11:20:59;13.60;;;8.45;;
16612;SDS011;8419;52.358;9.752;2024-03-22T11:23:45;15.07;;;8.15;;
16612;SDS011;8419;52.358;9.752;2024-03-22T11:26:31;10.50;;;7.65;;
16612;SDS011;8419;52.358;9.752;2024-03-22T11:29:17;12.30;;;8.50;;
16612;SDS011;8419;52.358;9.752;2024-03-22T11:32:02;4.93;;;3.00;;
16612;SDS011;8419;52.358;9.752;2024-03-22T11:34:49;12.82;;;8.25;;
16612;SDS011;8419;52.358;9.752;2024-03-22T11:37:35;14.85;;;9.10;;
16612;SDS011;8419;52.358;9.752;2024-03-22T11:40:20;12.35;;;8.25;;
16612;SDS011;8419;52.358;9.752;2024-03-22T11:43:07;16.15;;;8.25;;
16612;SDS011;8419;52.358;9.752;2024-03-22T11:45:53;5.22;;;3.87;;
16612;SDS011;8419;52.358;9.752;2024-03-22T11:48:39;10.45;;;7.25;;
16612;SDS011;8419;52.358;9.752;2024-03-22T11:51:25;14.15;;;9.00;;
16612;SDS011;8419;52.358;9.752;2024-03-22T11:54:11;11.23;;;7.15;;
16612;SDS011;8419;52.358;9.752;2024-03-22T11:56:58;13.80;;;8.95;;
16612;SDS011;8419;52.358;9.752;2024-03-22T11:59:43;17.02;;;8.52;;
16612;SDS011;8419;52.358;9.752;2024-03-22T12:02:31;14.80;;;9.05;;
16612;SDS011;8419;52.358;9.752;2024-03-22T12:05:17;13.90;;;7.70;;
16612;SDS011;8419;52.358;9.752;2024-03-22T12:08:03;17.35;;;9.43;;
16612;SDS011;8419;52.358;9.752;2024-03-22T12:10:50;6.32;;;3.37;;
16612;SDS011;8419;52.358;9.752;2024-03-22T12:13:35;11.50;;;7.03;;
16612;SDS011;8419;52.358;9.752;2024-03-22T12:16:22;12.43;;;8.10;;
16612;SDS011;8419;52.358;9.752;2024-03-22T12:19:07;8.65;;;5.82;;
16612;SDS011;8419;52.358;9.752;2024-03-22T12:21:51;9.70;;;5.53;;
16612;SDS011;8419;52.358;9.752;2024-03-22T12:24:37;18.15;;;8.90;;
16612;SDS011;8419;52.358;9.752;2024-03-22T12:27:23;11.57;;;5.28;;
16612;SDS011;8419;52.358;9.752;2024-03-22T12:30:09;14.98;;;9.85;;
16612;SDS011;8419;52.358;9.752;2024-03-22T12:32:57;16.15;;;11.15;;
16612;SDS011;8419;52.358;9.752;2024-03-22T12:35:43;20.88;;;11.00;;
16612;SDS011;8419;52.358;9.752;2024-03-22T12:38:29;17.37;;;10.73;;
16612;SDS011;8419;52.358;9.752;2024-03-22T12:41:14;17.17;;;10.50;;
16612;SDS011;8419;52.358;9.752;2024-03-22T12:44:00;15.13;;;10.85;;
16612;SDS011;8419;52.358;9.752;2024-03-22T12:46:46;9.02;;;5.07;;
16612;SDS011;8419;52.358;9.752;2024-03-22T12:49:32;9.52;;;7.57;;
16612;SDS011;8419;52.358;9.752;2024-03-22T12:52:18;19.17;;;12.65;;
16612;SDS011;8419;52.358;9.752;2024-03-22T12:55:05;7.00;;;4.50;;
16612;SDS011;8419;52.358;9.752;2024-03-22T12:57:51;18.70;;;12.07;;
16612;SDS011;8419;52.358;9.752;2024-03-22T13:00:37;17.45;;;10.07;;
16612;SDS011;8419;52.358;9.752;2024-03-22T13:03:23;17.77;;;11.23;;
16612;SDS011;8419;52.358;9.752;2024-03-22T13:06:09;16.42;;;10.35;;
16612;SDS011;8419;52.358;9.752;2024-03-22T13:08:55;19.17;;;11.73;;
16612;SDS011;8419;52.358;9.752;2024-03-22T13:11:41;16.02;;;10.18;;
16612;SDS011;8419;52.358;9.752;2024-03-22T13:14:26;12.35;;;6.12;;
16612;SDS011;8419;52.358;9.752;2024-03-22T13:17:12;17.45;;;11.52;;
16612;SDS011;8419;52.358;9.752;2024-03-22T13:19:58;7.18;;;4.62;;
16612;SDS011;8419;52.358;9.752;2024-03-22T13:22:44;18.17;;;11.05;;
16612;SDS011;8419;52.358;9.752;2024-03-22T13:25:29;15.27;;;8.85;;
16612;SDS011;8419;52.358;9.752;2024-03-22T13:28:15;14.75;;;8.88;;
16612;SDS011;8419;52.358;9.752;2024-03-22T13:31:04;8.43;;;4.78;;
16612;SDS011;8419;52.358;9.752;2024-03-22T13:33:50;16.27;;;10.70;;
16612;SDS011;8419;52.358;9.752;2024-03-22T13:36:36;8.43;;;5.85;;
16612;SDS011;8419;52.358;9.752;2024-03-22T13:39:22;15.38;;;10.27;;
16612;SDS011;8419;52.358;9.752;2024-03-22T13:42:08;12.80;;;7.32;;
16612;SDS011;8419;52.358;9.752;2024-03-22T13:44:53;13.65;;;9.82;;
16612;SDS011;8419;52.358;9.752;2024-03-22T13:47:41;9.98;;;7.43;;
16612;SDS011;8419;52.358;9.752;2024-03-22T13:50:27;12.02;;;5.75;;
16612;SDS011;8419;52.358;9.752;2024-03-22T13:53:12;12.73;;;8.35;;
16612;SDS011;8419;52.358;9.752;2024-03-22T13:55:59;5.82;;;3.10;;
16612;SDS011;8419;52.358;9.752;2024-03-22T13:58:45;9.77;;;6.45;;
16612;SDS011;8419;52.358;9.752;2024-03-22T14:01:30;11.15;;;6.82;;
16612;SDS011;8419;52.358;9.752;2024-03-22T14:04:16;13.95;;;9.40;;
16612;SDS011;8419;52.358;9.752;2024-03-22T14:07:03;16.23;;;9.32;;
16612;SDS011;8419;52.358;9.752;2024-03-22T14:09:49;11.60;;;7.80;;
16612;SDS011;8419;52.358;9.752;2024-03-22T14:12:35;7.95;;;5.60;;
16612;SDS011;8419;52.358;9.752;2024-03-22T14:15:21;13.88;;;9.00;;
16612;SDS011;8419;52.358;9.752;2024-03-22T14:18:09;15.93;;;10.27;;
16612;SDS011;8419;52.358;9.752;2024-03-22T14:20:55;12.77;;;8.15;;
16612;SDS011;8419;52.358;9.752;2024-03-22T14:23:40;12.50;;;9.98;;
16612;SDS011;8419;52.358;9.752;2024-03-22T14:26:26;16.00;;;9.85;;
16612;SDS011;8419;52.358;9.752;2024-03-22T14:29:12;13.25;;;9.63;;
16612;SDS011;8419;52.358;9.752;2024-03-22T14:31:57;10.52;;;7.43;;
16612;SDS011;8419;52.358;9.752;2024-03-22T14:34:43;16.60;;;10.15;;
16612;SDS011;8419;52.358;9.752;2024-03-22T14:37:28;8.40;;;5.45;;
16612;SDS011;8419;52.358;9.752;2024-03-22T14:40:14;12.43;;;8.02;;
16612;SDS011;8419;52.358;9.752;2024-03-22T14:43:01;13.40;;;8.07;;
16612;SDS011;8419;52.358;9.752;2024-03-22T14:45:47;18.80;;;11.95;;
16612;SDS011;8419;52.358;9.752;2024-03-22T14:48:32;15.73;;;10.65;;
16612;SDS011;8419;52.358;9.752;2024-03-22T14:51:18;15.07;;;10.13;;
16612;SDS011;8419;52.358;9.752;2024-03-22T14:54:04;18.37;;;11.82;;
16612;SDS011;8419;52.358;9.752;2024-03-22T14:56:49;8.25;;;5.15;;
16612;SDS011;8419;52.358;9.752;2024-03-22T14:59:35;13.13;;;7.90;;
16612;SDS011;8419;52.358;9.752;2024-03-22T15:02:21;13.25;;;8.65;;
16612;SDS011;8419;52.358;9.752;2024-03-22T15:05:07;13.40;;;9.05;;
16612;SDS011;8419;52.358;9.752;2024-03-22T15:07:53;5.97;;;4.07;;
16612;SDS011;8419;52.358;9.752;2024-03-22T15:10:39;17.15;;;10.77;;
16612;SDS011;8419;52.358;9.752;2024-03-22T15:13:25;12.18;;;7.20;;
16612;SDS011;8419;52.358;9.752;2024-03-22T15:16:12;16.42;;;10.55;;
16612;SDS011;8419;52.358;9.752;2024-03-22T15:18:57;16.17;;;10.75;;
16612;SDS011;8419;52.358;9.752;2024-03-22T15:21:43;20.02;;;9.88;;
16612;SDS011;8419;52.358;9.752;2024-03-22T15:24:29;18.62;;;10.57;;
16612;SDS011;8419;52.358;9.752;2024-03-22T15:27:14;15.57;;;10.45;;
16612;SDS011;8419;52.358;9.752;2024-03-22T15:30:00;12.30;;;7.30;;
16612;SDS011;8419;52.358;9.752;2024-03-22T15:32:45;12.88;;;6.70;;
16612;SDS011;8419;52.358;9.752;2024-03-22T15:35:31;11.23;;;8.68;;
16612;SDS011;8419;52.358;9.752;2024-03-22T15:38:16;12.07;;;7.22;;
16612;SDS011;8419;52.358;9.752;2024-03-22T15:41:02;13.73;;;10.20;;
16612;SDS011;8419;52.358;9.752;2024-03-22T15:43:48;13.30;;;8.15;;
16612;SDS011;8419;52.358;9.752;2024-03-22T15:46:33;15.25;;;9.63;;
16612;SDS011;8419;52.358;9.752;2024-03-22T15:49:18;17.83;;;11.60;;
16612;SDS011;8419;52.358;9.752;2024-03-22T15:52:05;13.82;;;8.23;;
16612;SDS011;8419;52.358;9.752;2024-03-22T15:54:50;13.98;;;7.82;;
16612;SDS011;8419;52.358;9.752;2024-03-22T15:57:37;17.50;;;10.73;;
16612;SDS011;8419;52.358;9.752;2024-03-22T16:00:23;14.98;;;9.13;;
16612;SDS011;8419;52.358;9.752;2024-03-22T16:03:10;16.92;;;9.60;;
16612;SDS011;8419;52.358;9.752;2024-03-22T16:05:58;16.40;;;9.85;;
16612;SDS011;8419;52.358;9.752;2024-03-22T16:08:44;16.35;;;10.95;;
16612;SDS011;8419;52.358;9.752;2024-03-22T16:11:30;15.02;;;9.45;;
16612;SDS011;8419;52.358;9.752;2024-03-22T16:14:16;15.27;;;9.35;;
16612;SDS011;8419;52.358;9.752;2024-03-22T16:17:02;15.05;;;7.50;;
16612;SDS011;8419;52.358;9.752;2024-03-22T16:19:49;13.18;;;7.50;;
16612;SDS011;8419;52.358;9.752;2024-03-22T16:22:35;7.75;;;4.00;;
16612;SDS011;8419;52.358;9.752;2024-03-22T16:25:23;13.35;;;8.40;;
16612;SDS011;8419;52.358;9.752;2024-03-22T16:28:08;10.75;;;7.22;;
16612;SDS011;8419;52.358;9.752;2024-03-22T16:30:54;12.75;;;6.65;;
16612;SDS011;8419;52.358;9.752;2024-03-22T16:33:40;13.23;;;8.15;;